createdAt,value
2024-03-12T00:00:33.332Z,97520.06
2024-03-12T00:03:37.571Z,97513.44
2024-03-12T00:06:43.353Z,97514.97
2024-03-12T00:09:47.216Z,97519.13
2024-03-12T00:12:53.355Z,97519.72
2024-03-12T00:15:57.625Z,97514.00
2024-03-12T00:19:01.704Z,97509.47
2024-03-12T00:22:09.112Z,97531.81
2024-03-12T00:25:12.746Z,97535.09
2024-03-12T00:28:16.606Z,97534.09
2024-03-12T00:31:20.387Z,97541.91
2024-03-12T00:34:24.040Z,97538.13
2024-03-12T00:37:29.355Z,97539.69
2024-03-12T00:40:35.596Z,97552.97
2024-03-12T00:43:39.554Z,97551.66
2024-03-12T00:46:43.367Z,97557.19
2024-03-12T00:49:47.075Z,97559.19
2024-03-12T00:52:54.210Z,97536.75
2024-03-12T00:55:59.428Z,97571.13
2024-03-12T00:59:03.032Z,97563.19
2024-03-12T01:02:06.643Z,97565.16
2024-03-12T01:05:11.160Z,97568.22
2024-03-12T01:08:16.258Z,97564.03
2024-03-12T01:11:19.851Z,97571.31
2024-03-12T01:14:23.936Z,97565.91
2024-03-12T01:17:27.550Z,97570.72
2024-03-12T01:20:35.160Z,97550.25
2024-03-12T01:23:41.933Z,97574.88
2024-03-12T01:26:45.798Z,97583.16
2024-03-12T01:29:49.389Z,97599.97
2024-03-12T01:32:54.084Z,97578.69
2024-03-12T01:36:06.846Z,97577.13
2024-03-12T01:39:17.307Z,97580.31
2024-03-12T01:42:22.737Z,97586.47
2024-03-12T01:45:27.385Z,97581.09
2024-03-12T01:48:32.821Z,97582.03
2024-03-12T01:51:37.920Z,97583.25
2024-03-12T01:54:45.027Z,97582.69
2024-03-12T01:57:49.631Z,97592.16
2024-03-12T02:00:53.322Z,97590.56
2024-03-12T02:03:57.539Z,97597.94
2024-03-12T02:07:01.227Z,97604.00
2024-03-12T02:10:07.520Z,97606.53
2024-03-12T02:13:11.208Z,97605.16
2024-03-12T02:16:14.873Z,97613.75
2024-03-12T02:19:19.450Z,97606.88
2024-03-12T02:22:22.796Z,97606.75
2024-03-12T02:25:27.759Z,97605.59
2024-03-12T02:28:31.227Z,97612.56
2024-03-12T02:31:35.135Z,97610.09
2024-03-12T02:34:39.531Z,97622.38
2024-03-12T02:37:43.674Z,97628.22
2024-03-12T02:40:48.814Z,97622.22
2024-03-12T02:43:53.117Z,97628.03
2024-03-12T02:46:56.802Z,97627.19
2024-03-12T02:50:00.643Z,97637.78
2024-03-12T02:53:05.171Z,97661.81
2024-03-12T02:56:10.596Z,97648.84
2024-03-12T02:59:14.325Z,97641.13
2024-03-12T03:02:18.007Z,97638.94
2024-03-12T03:05:21.393Z,97650.81
2024-03-12T03:08:24.907Z,97654.59
2024-03-12T03:11:30.390Z,97668.84
2024-03-12T03:14:34.067Z,97669.69
2024-03-12T03:17:37.839Z,97671.75
2024-03-12T03:20:41.547Z,97669.66
2024-03-12T03:23:45.117Z,97659.84
2024-03-12T03:26:52.266Z,97670.19
2024-03-12T03:29:57.999Z,97668.25
2024-03-12T03:33:01.689Z,97673.13
2024-03-12T03:36:05.804Z,97675.09
2024-03-12T03:39:09.781Z,97679.34
2024-03-12T03:42:14.923Z,97682.38
2024-03-12T03:45:19.116Z,97683.53
2024-03-12T03:48:22.863Z,97688.28
2024-03-12T03:51:27.081Z,97685.59
2024-03-12T03:54:30.562Z,97683.69
2024-03-12T03:57:35.842Z,97630.19
2024-03-12T04:00:40.910Z,97687.94
2024-03-12T04:03:44.604Z,97692.56
2024-03-12T04:06:51.921Z,97693.94
2024-03-12T04:09:57.400Z,97698.66
2024-03-12T04:13:02.729Z,97702.47
2024-03-12T04:16:07.251Z,97705.13
2024-03-12T04:19:11.133Z,97716.50
2024-03-12T04:22:14.828Z,97718.38
2024-03-12T04:25:18.799Z,97716.13
2024-03-12T04:28:24.083Z,97719.69
2024-03-12T04:34:24.804Z,97733.06
2024-03-12T04:37:32.884Z,97739.69
2024-03-12T04:40:36.913Z,97736.06
2024-03-12T04:43:43.064Z,97752.91
2024-03-12T04:46:46.782Z,97746.09
2024-03-12T04:49:52.702Z,97730.03
2024-03-12T04:52:56.314Z,97759.31
2024-03-12T04:56:00.029Z,97760.25
2024-03-12T04:59:03.727Z,97769.31
2024-03-12T05:02:07.436Z,97775.59
2024-03-12T05:05:14.936Z,97773.66
2024-03-12T05:08:19.599Z,97781.56
2024-03-12T05:11:23.056Z,97778.97
2024-03-12T05:14:26.620Z,97794.38
2024-03-12T05:17:30.344Z,97795.81
2024-03-12T05:20:37.388Z,97798.09
2024-03-12T05:23:41.025Z,97748.75
2024-03-12T05:26:46.055Z,97809.66
2024-03-12T05:29:53.799Z,97757.38
2024-03-12T05:32:57.583Z,97804.75
2024-03-12T05:36:10.436Z,97818.06
2024-03-12T05:39:20.178Z,97812.13
2024-03-12T05:42:41.438Z,97817.34
2024-03-12T05:46:03.076Z,97816.53
2024-03-12T05:49:10.254Z,97819.50
2024-03-12T05:52:17.164Z,97821.53
2024-03-12T05:55:20.601Z,97829.44
2024-03-12T05:58:24.352Z,97831.31
2024-03-12T06:01:29.376Z,97827.22
2024-03-12T06:04:34.027Z,97831.66
2024-03-12T06:07:39.144Z,97835.19
2024-03-12T06:10:42.795Z,97836.88
2024-03-12T06:13:46.598Z,97844.16
2024-03-12T06:22:04.734Z,97845.81
2024-03-12T06:38:36.661Z,97859.84
2024-03-12T06:41:42.511Z,97860.06
2024-03-12T06:44:50.782Z,97862.78
2024-03-12T06:47:56.761Z,97869.72
2024-03-12T06:51:01.540Z,97871.53
2024-03-12T06:54:08.308Z,97875.38
2024-03-12T06:57:14.603Z,97876.53
2024-03-12T07:00:27.729Z,97872.88
2024-03-12T07:03:32.660Z,97877.31
2024-03-12T07:06:36.902Z,97873.16
2024-03-12T07:09:42.703Z,97871.47
2024-03-12T07:12:47.298Z,97877.94
2024-03-12T07:15:51.037Z,97870.38
2024-03-12T07:18:56.638Z,97874.63
2024-03-12T07:22:00.810Z,97864.97
2024-03-12T07:25:07.174Z,97836.56
2024-03-12T07:28:11.528Z,97869.78
2024-03-12T07:31:17.088Z,97872.84
2024-03-12T07:34:21.757Z,97877.56
2024-03-12T07:37:25.639Z,97881.16
2024-03-12T07:40:30.998Z,97876.56
2024-03-12T07:43:34.965Z,97882.00
2024-03-12T07:46:38.711Z,97878.44
2024-03-12T07:49:43.071Z,97887.22
2024-03-12T07:52:47.333Z,97881.31
2024-03-12T07:55:54.398Z,97880.19
2024-03-12T07:58:58.369Z,97876.47
2024-03-12T08:02:05.206Z,97885.63
2024-03-12T08:05:09.593Z,97875.53
2024-03-12T08:08:13.357Z,97874.44
2024-03-12T08:11:20.251Z,97875.13
2024-03-12T08:14:23.959Z,97880.13
2024-03-12T08:17:29.607Z,97887.88
2024-03-12T08:20:33.532Z,97876.81
2024-03-12T08:23:37.543Z,97887.53
2024-03-12T08:26:43.999Z,97887.88
2024-03-12T08:29:47.739Z,97885.69
2024-03-12T08:32:51.674Z,97882.06
2024-03-12T08:35:55.876Z,97891.75
2024-03-12T08:39:00.149Z,97894.50
2024-03-12T08:42:09.936Z,97903.88
2024-03-12T08:45:15.414Z,97904.00
2024-03-12T08:48:19.554Z,97909.63
2024-03-12T08:51:24.936Z,97915.88
2024-03-12T08:54:28.965Z,97909.63
2024-03-12T08:57:34.137Z,97912.03
2024-03-12T09:00:38.918Z,97912.94
2024-03-12T09:03:46.555Z,97916.06
2024-03-12T09:06:53.509Z,97918.78
2024-03-12T09:09:59.811Z,97918.38
2024-03-12T09:13:05.662Z,97920.50
2024-03-12T09:16:11.676Z,97924.91
2024-03-12T09:19:16.413Z,97922.50
2024-03-12T09:22:20.228Z,97915.13
2024-03-12T09:25:24.491Z,97926.66
2024-03-12T09:28:29.755Z,97930.84
2024-03-12T09:31:35.154Z,97934.28
2024-03-12T09:34:43.468Z,97927.53
2024-03-12T09:37:47.507Z,97925.97
2024-03-12T09:40:54.200Z,97929.34
2024-03-12T09:43:59.793Z,97939.31
2024-03-12T09:47:04.672Z,97937.63
2024-03-12T09:50:14.218Z,97933.06
2024-03-12T09:53:21.078Z,97930.66
2024-03-12T09:56:26.561Z,97941.13
2024-03-12T09:59:52.775Z,97950.03
2024-03-12T10:03:06.765Z,97946.03
2024-03-12T10:06:11.286Z,97951.69
2024-03-12T10:09:18.314Z,97949.91
2024-03-12T10:12:22.970Z,97948.03
2024-03-12T10:15:28.290Z,97951.69
2024-03-12T10:18:34.498Z,97949.31
2024-03-12T10:21:38.655Z,97933.69
2024-03-12T10:24:42.454Z,97955.47
2024-03-12T10:28:03.772Z,97944.97
2024-03-12T10:34:31.045Z,97965.41
2024-03-12T10:37:36.205Z,97900.16
2024-03-12T10:40:40.531Z,97958.53
2024-03-12T10:43:46.941Z,97961.44
2024-03-12T10:46:51.446Z,97957.84
2024-03-12T10:49:57.360Z,97964.50
2024-03-12T10:53:02.327Z,97964.50
2024-03-12T10:56:12.668Z,97964.88
2024-03-12T10:59:20.683Z,97969.78
2024-03-12T11:02:24.390Z,97964.69
2024-03-12T11:05:33.909Z,97957.91
2024-03-12T11:08:38.201Z,97961.53
2024-03-12T11:11:42.331Z,97967.16
2024-03-12T11:14:46.529Z,97966.66
2024-03-12T11:17:51.593Z,97970.84
2024-03-12T11:20:57.149Z,97972.13
2024-03-12T11:24:01.123Z,97973.25
2024-03-12T11:27:05.339Z,97975.22
2024-03-12T11:30:20.673Z,97978.81
2024-03-12T11:34:04.510Z,97973.72
2024-03-12T11:37:39.723Z,97975.22
2024-03-12T11:41:12.081Z,97978.66
2024-03-12T11:50:31.231Z,97972.25
2024-03-12T12:05:41.272Z,97974.97
2024-03-12T12:08:53.592Z,97943.94
2024-03-12T12:12:05.114Z,97964.81
2024-03-12T12:15:12.486Z,97973.16
2024-03-12T12:18:16.413Z,97982.59
2024-03-12T12:21:22.861Z,97975.47
2024-03-12T12:24:27.987Z,97981.09
2024-03-12T12:27:33.451Z,97957.13
2024-03-12T12:30:40.027Z,97978.53
2024-03-12T12:34:30.349Z,97967.63
2024-03-12T12:38:31.076Z,97976.44
2024-03-12T12:41:39.983Z,97975.53
2024-03-12T12:44:43.914Z,97975.13
2024-03-12T12:47:50.109Z,97977.97
2024-03-12T12:50:55.817Z,97974.47
2024-03-12T12:54:03.369Z,97973.56
2024-03-12T12:57:11.786Z,97970.22
2024-03-12T13:00:22.397Z,97965.53
2024-03-12T13:03:26.289Z,97971.47
2024-03-12T13:06:30.558Z,97974.47
2024-03-12T13:09:38.102Z,97978.16
2024-03-12T13:12:44.041Z,97968.09
2024-03-12T13:15:48.059Z,97967.59
2024-03-12T13:18:53.072Z,97971.38
2024-03-12T13:22:00.510Z,97968.63
2024-03-12T13:25:06.355Z,97968.44
2024-03-12T13:28:11.781Z,97970.50
2024-03-12T13:31:16.482Z,97979.59
2024-03-12T13:34:20.776Z,97978.44
2024-03-12T13:37:24.568Z,97977.97
2024-03-12T13:40:28.857Z,97976.44
2024-03-12T13:43:33.856Z,97979.91
2024-03-12T13:46:42.211Z,97981.25
2024-03-12T13:49:49.116Z,97973.72
2024-03-12T13:52:53.201Z,97983.94
2024-03-12T13:55:57.333Z,97984.25
2024-03-12T13:59:02.988Z,97991.88
2024-03-12T14:02:08.307Z,97981.41
2024-03-12T14:05:13.658Z,97990.47
2024-03-12T14:08:18.674Z,97983.97
2024-03-12T14:11:22.600Z,97965.44
2024-03-12T14:14:29.187Z,97990.28
2024-03-12T14:17:32.939Z,97990.63
2024-03-12T14:20:37.968Z,97987.50
2024-03-12T14:23:41.704Z,97977.91
2024-03-12T14:26:45.494Z,97990.94
2024-03-12T14:29:50.488Z,97998.47
2024-03-12T14:33:57.653Z,98004.72
2024-03-12T14:38:07.961Z,97960.81
2024-03-12T14:41:34.630Z,98023.53
2024-03-12T14:49:38.765Z,98000.69
2024-03-12T14:52:43.209Z,97998.31
2024-03-12T14:55:46.923Z,97996.44
2024-03-12T14:58:50.535Z,97997.41
2024-03-12T15:01:55.569Z,98000.97
2024-03-12T15:05:00.197Z,97998.41
2024-03-12T15:08:05.475Z,98008.41
2024-03-12T15:11:09.676Z,98008.41
2024-03-12T15:14:14.827Z,97997.91
2024-03-12T15:17:21.413Z,98009.72
2024-03-12T15:20:25.323Z,98006.28
2024-03-12T15:23:29.897Z,98009.69
2024-03-12T15:26:34.987Z,98010.00
2024-03-12T15:29:38.731Z,98005.41
2024-03-12T15:32:43.763Z,98006.44
2024-03-12T15:35:47.592Z,98005.47
2024-03-12T15:38:51.920Z,98009.88
2024-03-12T15:41:56.713Z,98007.28
2024-03-12T15:45:00.574Z,98011.28
2024-03-12T15:48:08.751Z,98009.69
2024-03-12T15:51:13.667Z,98006.38
2024-03-12T15:54:17.502Z,98007.84
2024-03-12T15:57:22.224Z,98013.50
2024-03-12T16:00:25.570Z,98006.72
2024-03-12T16:03:30.539Z,98018.75
2024-03-12T16:06:35.153Z,98018.25
2024-03-12T16:09:39.368Z,98005.47
2024-03-12T16:12:46.119Z,98021.03
2024-03-12T16:15:51.073Z,98018.59
2024-03-12T16:18:56.651Z,98012.56
2024-03-12T16:22:01.347Z,98020.66
2024-03-12T16:25:06.883Z,98014.84
2024-03-12T16:28:10.997Z,98018.28
2024-03-12T16:34:26.877Z,98019.31
2024-03-12T16:37:30.675Z,98017.53
2024-03-12T16:40:34.493Z,98020.16
2024-03-12T16:43:38.141Z,98021.97
2024-03-12T16:46:41.901Z,98026.22
2024-03-12T16:49:48.177Z,98027.19
2024-03-12T16:52:51.806Z,98034.81
2024-03-12T16:55:55.626Z,98054.88
2024-03-12T16:58:59.517Z,98039.44
2024-03-12T17:02:09.176Z,98043.94
2024-03-12T17:05:17.526Z,98039.56
2024-03-12T17:08:21.278Z,98037.91
2024-03-12T17:11:25.443Z,98040.09
2024-03-12T17:14:34.647Z,98035.78
2024-03-12T17:17:40.965Z,98051.41
2024-03-12T17:20:47.720Z,98052.53
2024-03-12T17:23:51.998Z,98054.91
2024-03-12T17:26:56.038Z,98053.03
2024-03-12T17:30:00.368Z,98061.91
2024-03-12T17:33:06.740Z,98070.81
2024-03-12T17:36:18.543Z,98073.47
2024-03-12T17:39:23.254Z,98081.91
2024-03-12T17:42:27.389Z,98076.47
2024-03-12T17:45:32.693Z,98085.56
2024-03-12T17:48:41.243Z,98088.47
2024-03-12T17:51:47.275Z,98087.44
2024-03-12T17:54:51.682Z,98087.81
2024-03-12T17:57:56.340Z,98092.00
2024-03-12T18:01:00.617Z,98119.72
2024-03-12T18:04:04.898Z,98097.50
2024-03-12T18:07:22.411Z,98100.28
2024-03-12T18:10:28.377Z,98103.91
2024-03-12T18:13:32.606Z,98103.97
2024-03-12T18:16:38.399Z,98098.19
2024-03-12T18:19:42.590Z,98102.50
2024-03-12T18:22:48.913Z,98098.25
2024-03-12T18:25:52.768Z,98100.47
2024-03-12T18:28:57.818Z,98103.91
2024-03-12T18:32:02.887Z,98106.47
2024-03-12T18:35:08.887Z,98106.66
2024-03-12T18:38:13.859Z,98107.94
2024-03-12T18:41:17.494Z,98109.19
2024-03-12T18:44:22.920Z,98118.88
2024-03-12T18:47:27.285Z,98116.38
2024-03-12T18:50:31.932Z,98120.69
2024-03-12T18:53:38.179Z,98123.44
2024-03-12T18:56:43.589Z,98125.00
2024-03-12T18:59:47.615Z,98122.03
2024-03-12T19:02:53.350Z,98122.38
2024-03-12T19:05:58.601Z,98120.63
2024-03-12T19:09:04.269Z,98129.38
2024-03-12T19:12:11.745Z,98125.97
2024-03-12T19:15:21.666Z,98127.13
2024-03-12T19:18:25.986Z,98133.97
2024-03-12T19:21:30.493Z,98131.97
2024-03-12T19:24:35.742Z,98129.44
2024-03-12T19:27:40.066Z,98127.19
2024-03-12T19:30:44.362Z,98129.59
2024-03-12T19:33:48.244Z,98133.09
2024-03-12T19:36:52.446Z,98128.94
2024-03-12T19:40:00.371Z,98123.66
2024-03-12T19:43:04.711Z,98136.63
2024-03-12T19:46:09.012Z,98136.75
2024-03-12T19:49:14.724Z,98133.91
2024-03-12T19:52:19.672Z,98134.94
2024-03-12T19:55:26.876Z,98141.78
2024-03-12T19:58:31.893Z,98147.25
2024-03-12T20:01:35.682Z,98142.94
2024-03-12T20:04:39.419Z,98144.63
2024-03-12T20:07:43.624Z,98153.50
2024-03-12T20:10:48.587Z,98148.53
2024-03-12T20:13:52.912Z,98156.34
2024-03-12T20:16:57.239Z,98155.59
2024-03-12T20:20:00.879Z,98158.97
2024-03-12T20:23:06.906Z,98164.72
2024-03-12T20:26:11.958Z,98165.81
2024-03-12T20:29:15.577Z,98159.94
2024-03-12T20:32:20.545Z,98173.66
2024-03-12T20:35:24.474Z,98169.13
2024-03-12T20:38:29.927Z,98171.88
2024-03-12T20:41:36.490Z,98167.78
2024-03-12T20:44:41.278Z,98167.31
2024-03-12T20:47:46.538Z,98172.59
2024-03-12T20:50:50.639Z,98165.09
2024-03-12T20:53:54.951Z,98166.00
2024-03-12T20:57:00.007Z,98169.00
2024-03-12T21:00:17.402Z,98157.06
2024-03-12T21:03:21.087Z,98167.69
2024-03-12T21:06:25.549Z,98171.13
2024-03-12T21:09:29.137Z,98161.56
2024-03-12T21:12:34.859Z,98167.81
2024-03-12T21:15:38.351Z,98164.81
2024-03-12T21:18:43.397Z,98164.06
2024-03-12T21:21:50.676Z,98156.09
2024-03-12T21:24:58.241Z,98158.38
2024-03-12T21:28:04.177Z,98157.25
2024-03-12T21:31:07.868Z,98159.78
2024-03-12T21:34:12.794Z,98159.88
2024-03-12T21:37:17.030Z,98154.25
2024-03-12T21:40:20.718Z,98155.16
2024-03-12T21:43:25.866Z,98112.22
2024-03-12T21:46:29.746Z,98155.50
2024-03-12T21:49:33.371Z,98155.16
2024-03-12T21:52:37.521Z,98148.66
2024-03-12T21:55:41.389Z,98150.59
2024-03-12T21:58:48.536Z,98146.94
2024-03-12T22:01:52.176Z,98151.25
2024-03-12T22:04:55.859Z,98138.25
2024-03-12T22:07:59.493Z,98142.06
2024-03-12T22:11:04.528Z,98139.97
2024-03-12T22:14:12.191Z,98143.41
2024-03-12T22:17:16.618Z,98140.09
2024-03-12T22:20:21.031Z,98134.63
2024-03-12T22:23:28.930Z,98134.94
2024-03-12T22:26:32.647Z,98064.59
2024-03-12T22:29:39.858Z,98135.31
2024-03-12T22:34:25.449Z,98140.56
2024-03-12T22:37:29.692Z,98128.41
2024-03-12T22:40:33.470Z,98125.88
2024-03-12T22:43:38.576Z,98124.19
2024-03-12T22:46:43.747Z,98124.25
2024-03-12T22:49:49.556Z,98130.31
2024-03-12T22:52:55.559Z,98131.75
2024-03-12T22:55:59.516Z,98131.19
2024-03-12T22:59:03.873Z,98133.34
2024-03-12T23:02:10.444Z,98127.38
2024-03-12T23:05:17.170Z,98131.94
2024-03-12T23:08:21.898Z,98130.16
2024-03-12T23:11:28.264Z,98128.09
2024-03-12T23:14:31.896Z,98123.13
2024-03-12T23:17:37.441Z,98125.88
2024-03-12T23:20:45.754Z,98124.19
2024-03-12T23:23:49.411Z,98124.50
2024-03-12T23:26:55.963Z,98122.81
2024-03-12T23:30:01.154Z,98127.25
2024-03-12T23:33:09.012Z,98122.94
2024-03-12T23:36:18.094Z,98131.94
2024-03-12T23:39:24.677Z,98133.63
2024-03-12T23:42:28.243Z,98128.38
2024-03-12T23:45:32.559Z,98130.34
2024-03-12T23:48:36.096Z,98127.19
2024-03-12T23:51:40.892Z,98126.44
2024-03-12T23:54:44.851Z,98127.28
2024-03-12T23:57:49.599Z,98124.53
